Time;durP1;ratioP1;P1;durP2;ratioP2;P2;SDS_P1;SDS_P2;PMS_P1;PMS_P2;Temp;Humidity;BMP_temperature;BMP_pressure;BME280_temperature;BME280_humidity;BME280_pressure;Samples;Min_cycle;Max_cycle;Signal;HPM_P1;HPM_P2
2022/03/21 00:02:08;;;;;;;;;;;;;;;9.64;60.55;102925.66;10646465;27;19930;-64
2022/03/21 00:07:30;;;;;;;;;;;;;;;9.58;61.73;102924.97;10614013;27;19927;-64
2022/03/21 00:12:52;;;;;;;;;;;;;;;9.46;60.85;102930.47;10617536;27;19927;-65
2022/03/21 00:18:14;;;;;;;;;;;;;;;9.36;61.51;102944.66;10623926;27;19919;-65
2022/03/21 00:23:36;;;;;;;;;;;;;;;9.36;62.20;102934.22;10602954;27;19929;-65
2022/03/21 00:28:57;;;;;;;;;;;;;;;9.28;61.31;102943.13;10621587;27;19925;-64
2022/03/21 00:34:19;;;;;;;;;;;;;;;9.25;62.55;102936.25;10631936;27;19920;-65
2022/03/21 00:39:41;;;;;;;;;;;;;;;9.25;62.14;102920.66;10636615;27;19919;-65
2022/03/21 00:45:05;;;;;;;;;;;;;;;9.21;62.00;102925.97;10602120;27;19926;-65
2022/03/21 00:50:27;;;;;;;;;;;;;;;9.16;62.42;102926.09;10611046;27;20458;-65
2022/03/21 00:55:49;;;;;;;;;;;;;;;9.11;61.73;102927.94;10602287;27;19924;-65
2022/03/21 01:01:11;;;;;;;;;;;;;;;8.99;61.80;102940.41;10636105;27;20082;-64
2022/03/21 01:06:33;;;;;;;;;;;;;;;8.94;60.72;102950.91;10642954;27;19923;-65
2022/03/21 01:11:55;;;;;;;;;;;;;;;8.93;61.26;102949.22;10621659;27;20323;-64
2022/03/21 01:17:17;;;;;;;;;;;;;;;8.88;62.67;102935.44;10607324;27;19923;-65
2022/03/21 01:22:38;;;;;;;;;;;;;;;8.88;62.97;102939.81;10610339;27;19920;-65
2022/03/21 01:28:00;;;;;;;;;;;;;;;8.81;63.14;102948.63;10612462;27;19942;-63
2022/03/21 01:33:21;;;;;;;;;;;;;;;8.81;62.75;102933.91;10622979;27;19926;-63
2022/03/21 01:38:43;;;;;;;;;;;;;;;8.76;62.68;102930.53;10650257;27;19934;-66
2022/03/21 01:44:06;;;;;;;;;;;;;;;8.72;62.25;102941.94;10608478;27;19924;-64
2022/03/21 01:49:28;;;;;;;;;;;;;;;8.67;62.96;102917.78;10624465;27;19927;-65
2022/03/21 02:00:30;;;;;;;;;;;;;;;8.54;62.62;102912.88;10640893;27;19925;-64
2022/03/21 02:05:52;;;;;;;;;;;;;;;8.50;62.92;102926.84;10605800;27;19919;-64
2022/03/21 02:11:15;;;;;;;;;;;;;;;8.49;62.00;102939.88;10624284;27;19927;-65
2022/03/21 02:16:37;;;;;;;;;;;;;;;8.51;61.79;102932.91;10616484;27;20382;-65
2022/03/21 02:22:14;;;;;;;;;;;;;;;8.35;62.17;102918.53;10630842;27;19925;-65
2022/03/21 02:27:37;;;;;;;;;;;;;;;8.35;61.84;102923.72;10631721;27;20268;-65
2022/03/21 02:33:00;;;;;;;;;;;;;;;8.34;62.61;102924.63;10607969;27;20421;-65
2022/03/21 02:38:23;;;;;;;;;;;;;;;8.37;62.31;102919.34;10644847;27;19929;-65
2022/03/21 02:43:52;;;;;;;;;;;;;;;8.45;62.24;102917.44;10616592;27;19923;-65
2022/03/21 02:49:14;;;;;;;;;;;;;;;8.41;61.95;102931.41;10630707;27;20383;-64
2022/03/21 02:54:36;;;;;;;;;;;;;;;8.39;62.21;102933.19;10611129;27;19920;-65
2022/03/21 02:59:57;;;;;;;;;;;;;;;8.28;61.97;102920.41;10621379;27;19926;-66
2022/03/21 03:05:19;;;;;;;;;;;;;;;8.21;62.40;102915.38;10606091;27;19919;-65
2022/03/21 03:10:40;;;;;;;;;;;;;;;8.18;61.33;102918.91;10618419;27;19954;-65
2022/03/21 03:16:02;;;;;;;;;;;;;;;8.17;62.13;102937.09;10654678;27;20382;-66
2022/03/21 03:21:25;;;;;;;;;;;;;;;8.18;61.76;102931.91;10645088;27;19922;-66
2022/03/21 03:26:48;;;;;;;;;;;;;;;8.17;62.11;102921.53;10650719;27;20303;-65
2022/03/21 03:32:13;;;;;;;;;;;;;;;8.17;57.92;102924.13;10640085;27;19933;-64
2022/03/21 03:37:35;;;;;;;;;;;;;;;8.20;62.12;102934.44;10641169;27;20398;-65
2022/03/21 03:42:56;;;;;;;;;;;;;;;8.23;60.38;102942.19;10615672;27;19923;-65
2022/03/21 03:48:18;;;;;;;;;;;;;;;8.17;61.26;102943.16;10605338;27;19927;-65
2022/03/21 03:53:40;;;;;;;;;;;;;;;8.05;61.94;102943.41;10627388;27;20286;-63
2022/03/21 03:59:01;;;;;;;;;;;;;;;7.98;61.94;102940.97;10616884;27;19923;-65
2022/03/21 04:04:24;;;;;;;;;;;;;;;7.95;62.21;102943.59;10626871;27;19923;-65
2022/03/21 04:09:46;;;;;;;;;;;;;;;7.87;62.66;102946.34;10643201;27;19996;-66
2022/03/21 04:15:07;;;;;;;;;;;;;;;7.80;62.89;102934.38;10636755;27;20126;-65
2022/03/21 04:20:31;;;;;;;;;;;;;;;7.73;62.53;102939.72;10635115;27;19930;-66
2022/03/21 04:25:52;;;;;;;;;;;;;;;7.67;62.73;102940.69;10680637;27;19919;-65
2022/03/21 04:31:14;;;;;;;;;;;;;;;7.64;63.33;102937.28;10637486;27;19942;-65
2022/03/21 04:36:36;;;;;;;;;;;;;;;7.62;62.80;102949.44;10644485;27;19954;-65
2022/03/21 04:41:57;;;;;;;;;;;;;;;7.58;62.98;102950.38;10641293;27;19930;-65
2022/03/21 04:47:19;;;;;;;;;;;;;;;7.50;63.07;102947.06;10634988;27;19919;-66
2022/03/21 04:52:41;;;;;;;;;;;;;;;7.43;63.54;102955.84;10636988;27;19926;-65
2022/03/21 04:58:02;;;;;;;;;;;;;;;7.42;63.82;102959.34;10643871;27;19922;-65
2022/03/21 05:03:25;;;;;;;;;;;;;;;7.34;63.66;102957.75;10636406;27;19933;-65
2022/03/21 05:08:48;;;;;;;;;;;;;;;7.22;63.90;102956.22;10641451;27;20243;-65
2022/03/21 05:14:09;;;;;;;;;;;;;;;7.18;63.64;102951.97;10641826;27;19923;-65
2022/03/21 05:19:35;;;;;;;;;;;;;;;7.12;63.76;102946.91;10627084;27;19931;-65
2022/03/21 05:36:18;;;;;;;;;;;;;;;7.14;64.85;102962.41;10647524;27;19919;-65
2022/03/21 05:41:39;;;;;;;;;;;;;;;7.12;64.54;102970.25;10631106;27;20386;-65
2022/03/21 05:47:01;;;;;;;;;;;;;;;7.12;64.84;102959.88;10652668;27;19919;-65
2022/03/21 05:52:23;;;;;;;;;;;;;;;7.17;64.42;102965.81;10646384;27;19930;-64
2022/03/21 05:57:45;;;;;;;;;;;;;;;7.20;64.33;102983.09;10651853;27;19918;-65
2022/03/21 06:03:08;;;;;;;;;;;;;;;7.19;64.13;102989.16;10643514;27;20596;-65
2022/03/21 06:08:30;;;;;;;;;;;;;;;7.16;64.11;102987.44;10647115;27;19926;-65
2022/03/21 06:13:51;;;;;;;;;;;;;;;7.16;64.86;102990.03;10645952;27;20014;-66
2022/03/21 06:19:13;;;;;;;;;;;;;;;7.17;64.94;102990.91;10637377;27;19926;-66
2022/03/21 06:24:35;;;;;;;;;;;;;;;7.20;65.06;102989.09;10650556;27;19919;-65
2022/03/21 06:29:56;;;;;;;;;;;;;;;7.24;64.87;102988.19;10625863;27;19934;-65
2022/03/21 06:35:18;;;;;;;;;;;;;;;7.28;63.94;102996.75;10642322;27;19926;-66
2022/03/21 06:40:40;;;;;;;;;;;;;;;7.35;64.66;103004.41;10621331;27;19942;-65
2022/03/21 06:46:01;;;;;;;;;;;;;;;7.37;66.11;103007.84;10606668;27;19930;-65
2022/03/21 06:51:24;;;;;;;;;;;;;;;7.43;66.27;103012.91;10623016;27;19942;-65
2022/03/21 06:56:45;;;;;;;;;;;;;;;7.50;65.07;103019.72;10611500;27;19929;-66
2022/03/21 07:02:07;;;;;;;;;;;;;;;7.51;64.80;103020.56;10604497;27;20303;-66
2022/03/21 07:07:29;;;;;;;;;;;;;;;7.57;65.03;103030.88;10632749;27;19925;-65
2022/03/21 07:12:50;;;;;;;;;;;;;;;7.63;64.11;103038.56;10631688;27;19934;-64
2022/03/21 07:18:12;;;;;;;;;;;;;;;7.69;63.46;103032.34;10626483;27;19930;-65
2022/03/21 07:23:34;;;;;;;;;;;;;;;7.82;62.90;103033.00;10661977;27;19919;-66
2022/03/21 07:28:55;;;;;;;;;;;;;;;7.88;65.51;103033.75;10632401;27;19930;-65
2022/03/21 07:34:25;;;;;;;;;;;;;;;8.02;63.36;103046.47;10635650;27;20412;-64
2022/03/21 07:39:47;;;;;;;;;;;;;;;8.05;64.50;103038.63;10629835;27;20363;-64
2022/03/21 07:50:50;;;;;;;;;;;;;;;8.23;63.01;103036.56;10630356;27;19919;-64
2022/03/21 07:56:12;;;;;;;;;;;;;;;8.33;63.05;103039.81;10626210;27;19926;-63
2022/03/21 08:01:34;;;;;;;;;;;;;;;8.43;61.77;103044.81;10629116;27;19919;-64
2022/03/21 08:06:59;;;;;;;;;;;;;;;8.56;61.60;103048.03;10624584;27;19958;-65
2022/03/21 08:12:21;;;;;;;;;;;;;;;8.60;60.61;103048.78;10643419;27;20512;-65
2022/03/21 08:18:01;;;;;;;;;;;;;;;8.78;60.23;103050.16;10628925;27;19923;-64
2022/03/21 08:23:22;;;;;;;;;;;;;;;8.91;59.57;103043.78;10623446;27;20375;-64
2022/03/21 08:28:45;;;;;;;;;;;;;;;9.07;59.88;103045.97;10607741;27;19920;-69
2022/03/21 08:34:07;;;;;;;;;;;;;;;9.17;60.78;103044.03;10603128;27;19923;-68
2022/03/21 08:39:29;;;;;;;;;;;;;;;9.26;61.27;103031.66;10607236;27;19926;-68
2022/03/21 08:44:50;;;;;;;;;;;;;;;9.38;60.70;103039.16;10616463;27;20286;-65
2022/03/21 08:50:12;;;;;;;;;;;;;;;9.49;61.27;103033.69;10638134;27;20402;-65
2022/03/21 08:55:34;;;;;;;;;;;;;;;9.54;59.93;103037.91;10608590;27;20370;-65
2022/03/21 09:00:56;;;;;;;;;;;;;;;9.64;60.76;103035.03;10635138;27;19930;-65
2022/03/21 09:06:20;;;;;;;;;;;;;;;9.73;61.01;103040.00;10620012;27;20026;-65
2022/03/21 09:11:41;;;;;;;;;;;;;;;9.89;59.10;103036.09;10634924;27;19920;-65
2022/03/21 09:17:03;;;;;;;;;;;;;;;9.96;60.20;103032.44;10613066;27;19930;-65
2022/03/21 09:22:25;;;;;;;;;;;;;;;10.07;60.26;103034.75;10595877;27;19919;-65
2022/03/21 09:27:46;;;;;;;;;;;;;;;10.18;61.68;103043.16;10630356;27;20255;-65
2022/03/21 09:33:09;;;;;;;;;;;;;;;10.41;59.48;103046.81;10630205;27;19941;-65
2022/03/21 09:38:31;;;;;;;;;;;;;;;10.51;59.40;103042.19;10624044;27;19919;-65
2022/03/21 09:43:53;;;;;;;;;;;;;;;10.61;59.07;103034.94;10626966;27;19919;-66
2022/03/21 09:49:17;;;;;;;;;;;;;;;10.72;58.80;103043.28;10618040;27;19930;-65
2022/03/21 09:54:39;;;;;;;;;;;;;;;10.86;58.41;103041.13;10618104;27;19930;-65
2022/03/21 10:00:00;;;;;;;;;;;;;;;10.94;58.69;103041.72;10616692;27;20396;-69
2022/03/21 10:05:42;;;;;;;;;;;;;;;11.13;57.67;103042.88;10600539;28;19927;-69
2022/03/21 10:11:05;;;;;;;;;;;;;;;11.28;58.23;103039.78;10603639;27;19924;-68
2022/03/21 10:16:26;;;;;;;;;;;;;;;11.58;57.75;103039.63;10611078;27;20292;-69
2022/03/21 10:22:02;;;;;;;;;;;;;;;11.59;59.74;103033.50;10628907;27;19934;-65
2022/03/21 10:27:40;;;;;;;;;;;;;;;11.58;60.41;103036.19;10610014;27;19919;-64
2022/03/21 10:33:02;;;;;;;;;;;;;;;11.73;58.44;103038.28;10641128;27;20520;-64
2022/03/21 10:38:33;;;;;;;;;;;;;;;11.97;57.13;103029.59;10625089;27;20393;-64
2022/03/21 10:44:15;;;;;;;;;;;;;;;12.00;58.94;103026.88;10659036;27;19919;-64
2022/03/21 10:49:44;;;;;;;;;;;;;;;12.16;56.42;103022.81;10637761;27;19931;-65
2022/03/21 10:55:06;;;;;;;;;;;;;;;12.40;55.98;103032.34;10597572;27;20290;-65
2022/03/21 11:00:28;;;;;;;;;;;;;;;12.55;56.85;103028.25;10641159;27;19929;-64
2022/03/21 11:05:50;;;;;;;;;;;;;;;12.65;53.36;103021.78;10639839;27;19927;-65
2022/03/21 11:11:12;;;;;;;;;;;;;;;12.93;55.00;103019.84;10618861;27;19919;-65
2022/03/21 11:16:34;;;;;;;;;;;;;;;13.03;55.74;103015.06;10613089;27;19974;-64
2022/03/21 11:21:56;;;;;;;;;;;;;;;13.16;56.03;103014.53;10627672;27;19931;-63
2022/03/21 11:27:32;;;;;;;;;;;;;;;13.18;57.83;103017.94;10626852;27;20267;-64
2022/03/21 11:33:06;;;;;;;;;;;;;;;13.45;56.37;103018.59;10635369;27;20007;-64
2022/03/21 11:38:28;;;;;;;;;;;;;;;13.58;56.82;103012.75;10638998;27;19923;-64
2022/03/21 11:44:14;;;;;;;;;;;;;;;13.63;57.13;103008.19;10617459;27;19934;-64
2022/03/21 11:49:36;;;;;;;;;;;;;;;13.56;56.61;103018.06;10641625;27;19931;-63
2022/03/21 11:55:17;;;;;;;;;;;;;;;13.70;56.79;103004.38;10629664;27;19923;-64
2022/03/21 12:00:59;;;;;;;;;;;;;;;13.69;56.81;103008.78;10629500;27;19919;-65
2022/03/21 12:06:27;;;;;;;;;;;;;;;13.92;54.24;103000.75;10595992;27;19986;-64
2022/03/21 12:11:49;;;;;;;;;;;;;;;14.04;55.13;103000.25;10622177;27;19919;-64
2022/03/21 12:17:10;;;;;;;;;;;;;;;14.34;53.62;102995.41;10624905;27;19923;-62
2022/03/21 12:22:33;;;;;;;;;;;;;;;14.41;55.80;103000.31;10627587;27;19923;-64
2022/03/21 12:27:56;;;;;;;;;;;;;;;14.44;56.24;102990.50;10595505;27;19919;-64
2022/03/21 12:33:22;;;;;;;;;;;;;;;14.64;52.86;102993.06;10628121;27;19936;-64
2022/03/21 12:38:44;;;;;;;;;;;;;;;14.69;57.07;102991.09;10641070;27;19919;-64
2022/03/21 12:44:05;;;;;;;;;;;;;;;14.66;55.83;102985.97;10612396;27;19924;-65
2022/03/21 12:49:45;;;;;;;;;;;;;;;14.62;55.44;102984.41;10610998;27;19923;-64
2022/03/21 12:55:13;;;;;;;;;;;;;;;14.62;56.68;102976.53;10616072;27;19981;-65
2022/03/21 13:00:37;;;;;;;;;;;;;;;14.63;56.16;102974.75;10644221;27;20026;-64
2022/03/21 13:11:40;;;;;;;;;;;;;;;14.73;56.98;102970.78;10634064;27;19919;-64
2022/03/21 13:17:03;;;;;;;;;;;;;;;14.81;56.28;102969.50;10639245;27;19926;-65
2022/03/21 13:22:24;;;;;;;;;;;;;;;14.92;55.53;102971.59;10643278;27;20003;-63
2022/03/21 13:27:46;;;;;;;;;;;;;;;14.86;56.79;102959.59;10608860;27;19931;-64
2022/03/21 13:33:08;;;;;;;;;;;;;;;14.92;56.73;102956.69;10610351;27;19926;-64
2022/03/21 13:38:31;;;;;;;;;;;;;;;14.91;55.87;102955.00;10635989;27;19919;-64
2022/03/21 13:44:05;;;;;;;;;;;;;;;14.96;56.51;102952.13;10617646;27;19919;-65
2022/03/21 13:49:45;;;;;;;;;;;;;;;15.01;57.34;102956.22;10641240;27;19974;-64
2022/03/21 13:55:08;;;;;;;;;;;;;;;15.19;56.13;102946.63;10636363;27;19933;-64
2022/03/21 14:00:29;;;;;;;;;;;;;;;15.29;55.55;102946.09;10634410;27;19919;-65
2022/03/21 14:05:54;;;;;;;;;;;;;;;15.29;57.25;102951.34;10648719;27;20287;-65
2022/03/21 14:11:22;;;;;;;;;;;;;;;15.27;55.92;102952.34;10643187;27;19923;-68
2022/03/21 14:16:43;;;;;;;;;;;;;;;15.29;57.24;102951.34;10642656;27;19927;-68
2022/03/21 14:22:05;;;;;;;;;;;;;;;15.27;57.50;102942.72;10650297;27;19950;-68
2022/03/21 14:27:27;;;;;;;;;;;;;;;15.27;59.94;102942.72;10632538;27;19946;-68
2022/03/21 14:32:48;;;;;;;;;;;;;;;15.38;57.35;102940.38;10641720;27;19926;-68
2022/03/21 14:38:10;;;;;;;;;;;;;;;15.61;56.98;102932.16;10617098;27;19919;-68
2022/03/21 14:43:32;;;;;;;;;;;;;;;15.97;55.40;102930.22;10644484;27;19918;-68
2022/03/21 14:48:53;;;;;;;;;;;;;;;16.09;58.74;102929.56;10632911;27;19954;-68
2022/03/21 14:54:15;;;;;;;;;;;;;;;16.05;56.89;102925.41;10614432;27;20417;-69
2022/03/21 14:59:36;;;;;;;;;;;;;;;16.29;56.33;102931.97;10647829;27;19919;-66
2022/03/21 15:04:58;;;;;;;;;;;;;;;16.28;55.68;102931.13;10633721;27;20348;-66
2022/03/21 15:10:23;;;;;;;;;;;;;;;16.28;56.54;102932.91;10616110;27;19945;-66
2022/03/21 15:15:45;;;;;;;;;;;;;;;16.54;57.52;102923.53;10617654;27;19923;-66
2022/03/21 15:21:06;;;;;;;;;;;;;;;16.68;56.84;102926.22;10633160;27;19922;-66
2022/03/21 15:26:29;;;;;;;;;;;;;;;16.90;57.09;102923.22;10631816;27;19930;-66
2022/03/21 15:31:50;;;;;;;;;;;;;;;17.08;56.08;102925.63;10628622;27;19930;-66
2022/03/21 15:42:52;;;;;;;;;;;;;;;17.54;56.42;102929.94;10655628;27;19919;-66
2022/03/21 15:48:14;;;;;;;;;;;;;;;17.95;54.80;102925.59;10626238;27;20371;-66
2022/03/21 15:53:35;;;;;;;;;;;;;;;17.93;51.50;102928.34;10627392;27;19919;-66
2022/03/21 15:59:00;;;;;;;;;;;;;;;17.86;54.42;102920.91;10602490;27;20446;-66
2022/03/21 16:04:21;;;;;;;;;;;;;;;17.75;53.78;102928.66;10625099;27;20584;-66
2022/03/21 16:09:43;;;;;;;;;;;;;;;17.67;53.96;102920.31;10622859;27;19923;-66
2022/03/21 16:15:05;;;;;;;;;;;;;;;17.70;56.67;102920.97;10620263;27;19930;-66
2022/03/21 16:20:27;;;;;;;;;;;;;;;17.61;55.07;102923.34;10616099;27;20375;-67
2022/03/21 16:25:48;;;;;;;;;;;;;;;17.55;55.65;102926.34;10601939;27;19935;-68
2022/03/21 16:31:13;;;;;;;;;;;;;;;17.49;56.20;102921.44;10621916;27;20370;-66
2022/03/21 16:36:35;;;;;;;;;;;;;;;17.42;54.10;102920.13;10623676;27;19922;-66
2022/03/21 16:41:57;;;;;;;;;;;;;;;17.18;57.89;102916.25;10634728;27;19922;-66
2022/03/21 16:47:19;;;;;;;;;;;;;;;16.96;58.66;102918.44;10629076;27;19927;-67
2022/03/21 16:52:41;;;;;;;;;;;;;;;16.72;57.46;102916.34;10626579;27;19934;-67
2022/03/21 16:58:03;;;;;;;;;;;;;;;16.42;56.66;102918.94;10608490;27;19923;-66
2022/03/21 17:03:25;;;;;;;;;;;;;;;16.17;57.23;102922.97;10605520;27;19922;-67
2022/03/21 17:08:46;;;;;;;;;;;;;;;15.97;58.81;102919.72;10632967;27;19926;-66
2022/03/21 17:14:12;;;;;;;;;;;;;;;15.77;58.62;102922.53;10614806;27;20225;-66
2022/03/21 17:25:16;;;;;;;;;;;;;;;15.39;59.52;102928.94;10644009;27;20014;-66
2022/03/21 17:30:39;;;;;;;;;;;;;;;15.25;59.42;102927.91;10628333;27;19923;-66
2022/03/21 17:36:00;;;;;;;;;;;;;;;15.05;58.82;102930.69;10636455;27;20006;-66
2022/03/21 17:41:23;;;;;;;;;;;;;;;14.92;59.26;102932.19;10637017;27;19929;-66
2022/03/21 17:46:44;;;;;;;28.83;17.52;;;;;;;14.79;59.98;102934.59;10639214;27;19930;-65
2022/03/21 17:52:06;;;;;;;33.58;17.58;;;;;;;14.68;59.93;102947.38;10627052;27;20055;-66
2022/03/21 17:57:33;;;;;;;30.25;18.05;;;;;;;14.52;59.67;102935.03;10619316;27;20074;-66
2022/03/21 18:02:58;;;;;;;29.05;18.25;;;;;;;14.38;61.07;102952.38;10651049;27;20039;-66
2022/03/21 18:08:25;;;;;;;35.05;18.27;;;;;;;14.26;60.53;102950.31;10630302;27;20522;-66
2022/03/21 18:13:46;;;;;;;30.92;18.05;;;;;;;14.15;61.33;102955.19;10636160;27;20047;-63
2022/03/21 18:24:47;;;;;;;35.38;18.70;;;;;;;13.93;62.14;102964.91;10611550;27;20043;-64
2022/03/21 18:30:10;;;;;;;28.10;17.73;;;;;;;13.88;61.46;102972.13;10621886;27;20465;-64
2022/03/21 18:35:31;;;;;;;29.50;17.88;;;;;;;13.76;61.54;102972.66;10615719;27;20051;-65
2022/03/21 18:40:53;;;;;;;31.48;17.98;;;;;;;13.70;61.87;102984.28;10626586;27;20054;-63
2022/03/21 18:46:14;;;;;;;32.05;19.20;;;;;;;13.62;61.07;102975.03;10609300;27;20038;-63
2022/03/21 18:51:36;;;;;;;29.88;19.40;;;;;;;13.55;60.93;102974.44;10646353;27;20046;-63
2022/03/21 18:56:58;;;;;;;31.25;18.80;;;;;;;13.42;61.72;102979.41;10655378;27;20039;-64
2022/03/21 19:02:21;;;;;;;27.88;17.85;;;;;;;13.33;61.92;102983.25;10624337;27;20059;-63
2022/03/21 19:07:43;;;;;;;35.78;18.60;;;;;;;13.26;62.04;102996.69;10630680;27;20130;-63
2022/03/21 19:13:05;;;;;;;29.92;18.08;;;;;;;13.17;61.96;102992.66;10642130;27;20447;-64
2022/03/21 19:18:26;;;;;;;30.95;18.30;;;;;;;13.11;61.77;102995.53;10647059;27;20529;-63
2022/03/21 19:23:48;;;;;;;32.75;18.30;;;;;;;13.01;61.53;102991.56;10628501;27;20050;-64
2022/03/21 19:29:10;;;;;;;29.08;18.40;;;;;;;12.94;62.39;102995.38;10633442;27;20061;-64
2022/03/21 19:34:32;;;;;;;29.25;17.75;;;;;;;12.85;62.08;102995.69;10639794;27;20052;-64
2022/03/21 19:39:55;;;;;;;29.15;18.73;;;;;;;12.87;62.25;103003.50;10643882;27;20488;-64
2022/03/21 19:45:19;;;;;;;32.92;19.52;;;;;;;12.82;61.67;103005.44;10645469;27;20049;-63
2022/03/21 19:50:40;;;;;;;30.55;17.88;;;;;;;12.75;61.87;103012.66;10648263;27;20049;-64
2022/03/21 19:56:02;;;;;;;37.15;18.70;;;;;;;12.70;61.88;103017.22;10665563;27;20074;-64
2022/03/21 20:01:24;;;;;;;32.58;18.65;;;;;;;12.66;61.67;103015.63;10640954;27;20492;-64
2022/03/21 20:06:46;;;;;;;;;;;;;;;12.60;61.95;103020.25;10646600;27;20100;-64
2022/03/21 20:12:07;;;;;;;;;;;;;;;12.50;62.23;103018.88;10639729;27;19918;-64
2022/03/21 20:17:29;;;;;;;;;;;;;;;12.44;62.19;103019.13;10649830;27;19929;-63
2022/03/21 20:22:51;;;;;;;;;;;;;;;12.39;62.11;103025.41;10660789;27;20286;-63
2022/03/21 20:28:13;;;;;;;;;;;;;;;12.35;62.45;103023.84;10636559;27;19919;-63
2022/03/21 20:33:35;;;;;;;;;;;;;;;12.31;62.26;103030.09;10645072;27;19919;-63
2022/03/21 20:38:56;;;;;;;;;;;;;;;12.23;61.71;103029.50;10637350;27;19926;-63
2022/03/21 20:44:18;;;;;;;;;;;;;;;12.22;62.38;103035.66;10635959;27;20286;-64
2022/03/21 20:49:40;;;;;;;;;;;;;;;12.13;62.45;103029.00;10641456;27;19928;-63
2022/03/21 20:55:02;;;;;;;;;;;;;;;12.07;62.73;103031.00;10636263;27;19919;-63
2022/03/21 21:00:27;;;;;;;;;;;;;;;11.96;62.99;103030.50;10636221;27;19927;-63
2022/03/21 21:05:49;;;;;;;;;;;;;;;11.89;63.33;103029.84;10644883;27;20290;-64
2022/03/21 21:11:12;;;;;;;;;;;;;;;11.81;63.11;103031.91;10635418;27;20402;-64
2022/03/21 21:16:34;;;;;;;;;;;;;;;11.76;63.29;103033.81;10644835;27;19919;-63
2022/03/21 21:21:56;;;;;;;;;;;;;;;11.66;63.16;103036.78;10635565;27;20598;-64
2022/03/21 21:27:18;;;;;;;;;;;;;;;11.59;63.19;103037.91;10643579;27;19934;-64
2022/03/21 21:32:40;;;;;;;;;;;;;;;11.48;63.02;103042.59;10644635;27;20013;-63
2022/03/21 21:38:02;;;;;;;;;;;;;;;11.48;63.25;103037.38;10649049;27;19936;-63
2022/03/21 21:43:24;;;;;;;;;;;;;;;11.42;62.39;103037.56;10643324;27;19983;-64
2022/03/21 21:48:46;;;;;;;;;;;;;;;11.34;63.26;103029.16;10637772;27;20319;-64
2022/03/21 21:54:08;;;;;;;;;;;;;;;11.27;63.35;103032.84;10617615;27;19926;-63
2022/03/21 21:59:30;;;;;;;;;;;;;;;11.17;63.62;103026.22;10629813;27;19927;-63
2022/03/21 22:04:51;;;;;;;;;;;;;;;11.10;63.34;103024.69;10633764;27;19925;-63
2022/03/21 22:10:13;;;;;;;;;;;;;;;11.03;63.14;103033.63;10643328;27;19926;-63
2022/03/21 22:15:37;;;;;;;;;;;;;;;10.98;63.39;103039.91;10609369;27;19923;-64
2022/03/21 22:20:59;;;;;;;;;;;;;;;10.91;63.32;103028.78;10611043;27;20363;-64
2022/03/21 22:26:21;;;;;;;;;;;;;;;10.84;63.53;103027.25;10646545;27;20394;-63
2022/03/21 22:31:44;;;;;;;;;;;;;;;10.74;63.74;103025.84;10641613;27;19919;-63
2022/03/21 22:37:07;;;;;;;;;;;;;;;10.71;63.54;103035.50;10626548;27;19924;-64
2022/03/21 22:48:09;;;;;;;;;;;;;;;10.54;64.28;103037.78;10623071;27;19969;-63
2022/03/21 22:53:31;;;;;;;;;;;;;;;10.46;64.18;103033.66;10610793;27;20015;-64
2022/03/21 22:58:53;;;;;;;;;;;;;;;10.40;64.41;103033.84;10610210;27;20010;-63
2022/03/21 23:04:15;;;;;;;;;;;;;;;10.38;64.42;103026.06;10613599;27;20379;-64
2022/03/21 23:09:37;;;;;;;;;;;;;;;10.30;64.10;103027.19;10649707;27;19925;-64
2022/03/21 23:14:58;;;;;;;;;;;;;;;10.25;63.61;103029.06;10640071;27;19919;-63
2022/03/21 23:20:20;;;;;;;;;;;;;;;10.18;63.86;103027.53;10649460;27;19933;-64
2022/03/21 23:25:42;;;;;;;;;;;;;;;10.17;64.21;103021.44;10614536;27;20225;-63
2022/03/21 23:31:03;;;;;;;;;;;;;;;10.08;64.20;103020.84;10612177;27;19923;-63
2022/03/21 23:36:25;;;;;;;;;;;;;;;10.02;64.71;103027.09;10605871;27;19919;-64
2022/03/21 23:47:54;;;;;;;;;;;;;;;9.90;64.16;103031.72;10487704;28;19986;-63
2022/03/21 23:53:16;;;;;;;;;;;;;;;9.84;64.38;103037.13;10594344;27;19920;-62
2022/03/21 23:58:38;;;;;;;;;;;;;;;9.79;64.13;103032.03;10650864;27;19925;-63
